Terminal Aerodrome Forecast
Issued by NWS Charleston, SC

Home | Current Version | Previous Version | Text Only | Print | Product List | Glossary On
Versions: 1 2 3 4 5 6 7 8 9 10 11 12 13
000
FTUS42 KCHS 240524
TAFSAV
TAF
KSAV 240524Z 2406/2506 05004KT P6SM SCT025
     FM241430 09010KT P6SM BKN035
     FM241800 10013G19KT P6SM BKN040
     FM250000 10008KT P6SM SCT030=

USA.gov is the U.S. government's official web portal to all federal, state and local government web resources and services.